createdAt,value
2023-05-10T00:01:11.482Z,100286.56
2023-05-10T00:03:42.436Z,100283.45
2023-05-10T00:06:13.248Z,100280.98
2023-05-10T00:08:43.776Z,100278.02
2023-05-10T00:11:14.310Z,100275.59
2023-05-10T00:13:44.887Z,100274.73
2023-05-10T00:16:16.017Z,100269.73
2023-05-10T00:18:46.597Z,100270.90
2023-05-10T00:21:17.081Z,100270.19
2023-05-10T00:23:47.541Z,100269.48
2023-05-10T00:26:18.307Z,100263.96
2023-05-10T00:28:49.457Z,100266.20
2023-05-10T00:31:19.981Z,100269.46
2023-05-10T00:33:50.422Z,100266.35
2023-05-10T00:36:22.068Z,100268.91
2023-05-10T00:38:52.596Z,100269.06
2023-05-10T00:41:23.332Z,100267.33
2023-05-10T00:43:54.089Z,100263.88
2023-05-10T00:46:25.669Z,100255.73
2023-05-10T00:48:56.680Z,100255.70
2023-05-10T00:51:28.027Z,100254.66
2023-05-10T00:53:58.869Z,100254.63
2023-05-10T00:56:30.949Z,100255.98
2023-05-10T00:59:01.868Z,100251.14
2023-05-10T01:01:32.765Z,100249.91
2023-05-10T01:04:04.241Z,100252.64
2023-05-10T01:06:34.692Z,100252.63
2023-05-10T01:09:05.308Z,100250.87
2023-05-10T01:11:36.867Z,100247.23
2023-05-10T01:14:08.295Z,100245.67
2023-05-10T01:16:41.012Z,100244.77
2023-05-10T01:19:19.135Z,100243.86
2023-05-10T01:21:58.442Z,100238.00
2023-05-10T01:24:52.237Z,100236.60
2023-05-10T01:27:39.526Z,100236.58
2023-05-10T01:30:32.610Z,100241.33
2023-05-10T01:33:12.225Z,100244.55
2023-05-10T01:35:49.680Z,100239.88
2023-05-10T01:38:24.780Z,100241.75
2023-05-10T01:41:05.058Z,100241.05
2023-05-10T01:43:42.718Z,100242.59
2023-05-10T01:46:18.434Z,100243.26
2023-05-10T01:48:56.382Z,100244.92
2023-05-10T01:51:31.864Z,100240.94
2023-05-10T01:54:05.930Z,100241.62
2023-05-10T01:56:40.112Z,100238.19
2023-05-10T01:59:17.640Z,100233.35
2023-05-10T02:01:49.177Z,100229.19
2023-05-10T02:04:24.030Z,100230.54
2023-05-10T02:06:55.883Z,100228.45
2023-05-10T02:09:30.083Z,100225.52
2023-05-10T02:12:02.002Z,100223.94
2023-05-10T02:14:31.352Z,100223.08
2023-05-10T02:17:04.210Z,100227.50
2023-05-10T02:19:36.536Z,100224.73
2023-05-10T02:22:09.264Z,100219.04
2023-05-10T02:24:40.958Z,100221.77
2023-05-10T02:27:12.853Z,100222.95
2023-05-10T02:29:43.969Z,100220.02
2023-05-10T02:32:16.603Z,100224.95
2023-05-10T02:34:52.957Z,100218.76
2023-05-10T02:37:24.862Z,100223.38
2023-05-10T02:39:58.686Z,100224.20
2023-05-10T02:42:31.494Z,100221.27
2023-05-10T02:45:05.918Z,100219.21
2023-05-10T02:47:36.855Z,100218.70
2023-05-10T02:50:09.342Z,100217.99
2023-05-10T02:52:46.358Z,100218.98
2023-05-10T02:55:19.939Z,100217.59
2023-05-10T02:57:58.183Z,100220.14
2023-05-10T03:00:27.817Z,100217.02
2023-05-10T03:02:58.341Z,100222.00
2023-05-10T03:05:29.583Z,100222.85
2023-05-10T03:08:01.696Z,100222.65
2023-05-10T03:10:34.802Z,100220.74
2023-05-10T03:13:18.431Z,100218.83
2023-05-10T03:16:00.175Z,100223.78
2023-05-10T03:18:37.972Z,100224.45
2023-05-10T03:21:13.499Z,100226.99
2023-05-10T03:23:50.073Z,100223.37
2023-05-10T03:26:26.570Z,100223.85
2023-05-10T03:29:02.497Z,100219.55
2023-05-10T03:31:33.124Z,100219.87
2023-05-10T03:34:04.183Z,100221.90
2023-05-10T03:36:35.127Z,100221.02
2023-05-10T03:39:05.859Z,100223.06
2023-05-10T03:41:36.385Z,100219.11
2023-05-10T03:44:07.498Z,100218.74
2023-05-10T03:46:38.006Z,100216.84
2023-05-10T03:49:08.585Z,100216.49
2023-05-10T03:51:40.875Z,100212.88
2023-05-10T03:54:11.349Z,100211.83
2023-05-10T03:56:41.819Z,100214.39
2023-05-10T03:59:12.733Z,100215.40
2023-05-10T04:01:43.217Z,100214.70
2023-05-10T04:04:13.808Z,100212.30
2023-05-10T04:06:44.388Z,100212.80
2023-05-10T04:09:15.087Z,100213.14
2023-05-10T04:11:45.731Z,100218.45
2023-05-10T04:14:16.175Z,100217.05
2023-05-10T04:16:46.651Z,100214.46
2023-05-10T04:19:17.212Z,100212.56
2023-05-10T04:21:47.732Z,100214.11
2023-05-10T04:24:18.221Z,100211.35
2023-05-10T04:26:48.649Z,100212.23
2023-05-10T04:29:19.231Z,100211.02
2023-05-10T04:31:49.968Z,100211.20
2023-05-10T04:34:22.909Z,100208.32
2023-05-10T04:36:53.331Z,100211.23
2023-05-10T04:39:23.899Z,100205.42
2023-05-10T04:41:57.008Z,100210.92
2023-05-10T04:44:27.464Z,100209.95
2023-05-10T04:46:57.906Z,100212.02
2023-05-10T04:49:28.420Z,100211.33
2023-05-10T04:51:59.012Z,100211.34
2023-05-10T04:54:29.464Z,100209.63
2023-05-10T04:56:59.892Z,100214.97
2023-05-10T04:59:30.598Z,100213.95
2023-05-10T05:02:01.201Z,100213.65
2023-05-10T05:04:31.965Z,100210.73
2023-05-10T05:07:02.489Z,100212.14
2023-05-10T05:09:33.215Z,100210.80
2023-05-10T05:12:03.906Z,100211.69
2023-05-10T05:14:34.421Z,100211.55
2023-05-10T05:17:04.980Z,100212.93
2023-05-10T05:19:36.683Z,100208.48
2023-05-10T05:22:08.658Z,100208.33
2023-05-10T05:24:39.399Z,100204.42
2023-05-10T05:27:10.221Z,100209.10
2023-05-10T05:29:40.857Z,100209.16
2023-05-10T05:32:11.896Z,100206.33
2023-05-10T05:34:43.188Z,100206.02
2023-05-10T05:37:17.555Z,100207.14
2023-05-10T05:39:48.298Z,100205.62
2023-05-10T05:42:19.786Z,100203.95
2023-05-10T05:44:50.458Z,100203.63
2023-05-10T05:47:20.897Z,100201.98
2023-05-10T05:49:51.355Z,100203.89
2023-05-10T05:52:22.409Z,100205.09
2023-05-10T05:54:53.102Z,100206.71
2023-05-10T05:57:24.045Z,100208.65
2023-05-10T05:59:54.511Z,100206.28
2023-05-10T06:02:25.319Z,100207.70
2023-05-10T06:04:56.147Z,100206.86
2023-05-10T06:07:26.763Z,100205.20
2023-05-10T06:09:57.156Z,100201.61
2023-05-10T06:12:27.570Z,100206.11
2023-05-10T06:14:58.010Z,100204.05
2023-05-10T06:17:28.844Z,100209.42
2023-05-10T06:19:59.297Z,100205.69
2023-05-10T06:22:29.759Z,100207.77
2023-05-10T06:25:00.203Z,100209.88
2023-05-10T06:27:30.711Z,100211.48
2023-05-10T06:30:11.735Z,100207.02
2023-05-10T06:32:44.950Z,100209.14
2023-05-10T06:35:15.917Z,100203.33
2023-05-10T06:37:47.777Z,100206.80
2023-05-10T06:40:19.294Z,100203.40
2023-05-10T06:42:50.398Z,100196.71
2023-05-10T06:45:20.578Z,100194.19
2023-05-10T06:47:51.362Z,100195.77
2023-05-10T06:50:21.907Z,100196.48
2023-05-10T06:52:53.154Z,100194.62
2023-05-10T06:55:24.660Z,100198.77
2023-05-10T06:57:55.191Z,100198.46
2023-05-10T07:00:26.422Z,100196.95
2023-05-10T07:02:57.228Z,100202.98
2023-05-10T07:05:28.854Z,100200.65
2023-05-10T07:07:59.677Z,100202.05
2023-05-10T07:10:30.805Z,100198.12
2023-05-10T07:13:02.479Z,100200.91
2023-05-10T07:15:33.077Z,100198.52
2023-05-10T07:18:05.548Z,100194.24
2023-05-10T07:20:36.111Z,100192.37
2023-05-10T07:23:06.551Z,100190.67
2023-05-10T07:25:37.090Z,100194.48
2023-05-10T07:28:07.758Z,100186.92
2023-05-10T07:30:38.338Z,100184.70
2023-05-10T07:33:09.643Z,100182.14
2023-05-10T07:35:40.410Z,100174.05
2023-05-10T07:38:12.049Z,100172.86
2023-05-10T07:40:42.732Z,100171.16
2023-05-10T07:43:13.167Z,100167.04
2023-05-10T07:45:43.668Z,100166.52
2023-05-10T07:48:14.272Z,100169.31
2023-05-10T07:50:44.725Z,100167.27
2023-05-10T07:53:15.448Z,100167.79
2023-05-10T07:55:46.182Z,100169.17
2023-05-10T07:58:16.637Z,100166.77
2023-05-10T08:00:47.139Z,100169.02
2023-05-10T08:03:17.722Z,100168.16
2023-05-10T08:05:48.356Z,100163.88
2023-05-10T08:08:19.162Z,100166.98
2023-05-10T08:10:49.740Z,100161.64
2023-05-10T08:13:20.160Z,100160.27
2023-05-10T08:15:52.780Z,100160.98
2023-05-10T08:18:23.337Z,100159.08
2023-05-10T08:20:53.887Z,100156.48
2023-05-10T08:23:24.443Z,100153.58
2023-05-10T08:25:54.918Z,100150.82
2023-05-10T08:28:25.424Z,100148.42
2023-05-10T08:30:56.307Z,100151.55
2023-05-10T08:33:27.122Z,100145.16
2023-05-10T08:35:57.600Z,100148.09
2023-05-10T08:38:28.158Z,100146.21
2023-05-10T08:41:00.040Z,100143.29
2023-05-10T08:43:31.877Z,100148.46
2023-05-10T08:46:05.277Z,100144.66
2023-05-10T08:48:38.572Z,100141.56
2023-05-10T08:51:10.467Z,100142.95
2023-05-10T08:53:39.672Z,100142.94
2023-05-10T08:56:11.244Z,100140.02
2023-05-10T08:58:41.922Z,100138.13
2023-05-10T09:01:13.238Z,100137.62
2023-05-10T09:03:43.985Z,100131.05
2023-05-10T09:06:16.446Z,100136.58
2023-05-10T09:08:46.920Z,100138.65
2023-05-10T09:11:18.212Z,100139.32
2023-05-10T09:13:49.642Z,100136.91
2023-05-10T09:16:21.909Z,100133.81
2023-05-10T09:18:53.162Z,100129.50
2023-05-10T09:21:24.243Z,100131.89
2023-05-10T09:23:55.410Z,100129.14
2023-05-10T09:26:27.778Z,100131.90
2023-05-10T09:28:59.628Z,100132.41
2023-05-10T09:31:47.517Z,100133.61
2023-05-10T09:34:22.209Z,100135.16
2023-05-10T09:37:01.925Z,100136.89
2023-05-10T09:39:37.007Z,100132.21
2023-05-10T09:42:09.630Z,100134.45
2023-05-10T09:44:41.920Z,100140.48
2023-05-10T09:47:12.575Z,100139.27
2023-05-10T09:49:43.617Z,100140.98
2023-05-10T09:52:14.038Z,100141.50
2023-05-10T09:54:54.715Z,100135.66
2023-05-10T09:57:26.572Z,100125.95
2023-05-10T09:59:58.743Z,100119.90
2023-05-10T10:02:33.692Z,100124.36
2023-05-10T10:05:05.229Z,100123.84
2023-05-10T10:07:36.890Z,100118.30
2023-05-10T10:10:12.637Z,100116.89
2023-05-10T10:12:43.883Z,100113.75
2023-05-10T10:15:16.753Z,100112.34
2023-05-10T10:17:47.764Z,100110.58
2023-05-10T10:20:18.801Z,100110.73
2023-05-10T10:22:50.136Z,100109.30
2023-05-10T10:25:22.989Z,100104.27
2023-05-10T10:28:09.591Z,100096.79
2023-05-10T10:30:44.681Z,100102.48
2023-05-10T10:33:42.507Z,100102.44
2023-05-10T10:36:14.495Z,100114.49
2023-05-10T10:39:02.280Z,100105.65
2023-05-10T10:41:34.926Z,100102.70
2023-05-10T10:44:27.532Z,100108.70
2023-05-10T10:47:07.030Z,100112.43
2023-05-10T10:49:45.291Z,100109.46
2023-05-10T10:52:27.994Z,100104.91
2023-05-10T10:55:02.762Z,100102.30
2023-05-10T10:57:35.929Z,100105.91
2023-05-10T11:00:37.410Z,100097.73
2023-05-10T11:03:11.735Z,100093.71
2023-05-10T11:05:44.846Z,100095.23
2023-05-10T11:08:22.926Z,100094.48
2023-05-10T11:11:07.867Z,100094.94
2023-05-10T11:13:42.354Z,100097.14
2023-05-10T11:16:18.291Z,100091.70
2023-05-10T11:19:13.086Z,100084.39
2023-05-10T11:21:50.840Z,100084.64
2023-05-10T11:24:23.075Z,100085.48
2023-05-10T11:26:55.798Z,100080.92
2023-05-10T11:29:27.568Z,100077.23
2023-05-10T11:31:59.133Z,100077.88
2023-05-10T11:34:32.165Z,100078.88
2023-05-10T11:37:03.654Z,100075.33
2023-05-10T11:39:35.570Z,100073.02
2023-05-10T11:42:06.330Z,100072.77
2023-05-10T11:44:37.066Z,100073.71
2023-05-10T11:47:08.528Z,100076.45
2023-05-10T11:49:38.989Z,100077.16
2023-05-10T11:52:12.154Z,100073.73
2023-05-10T11:54:52.846Z,100071.27
2023-05-10T11:57:28.174Z,100070.02
2023-05-10T11:59:59.786Z,100073.08
2023-05-10T12:02:31.258Z,100073.39
2023-05-10T12:05:02.146Z,100072.66
2023-05-10T12:07:32.550Z,100071.05
2023-05-10T12:10:15.906Z,100083.45
2023-05-10T12:12:49.155Z,100084.69
2023-05-10T12:15:23.777Z,100078.83
2023-05-10T12:17:54.610Z,100080.38
2023-05-10T12:20:29.637Z,100074.46
2023-05-10T12:23:02.964Z,100075.61
2023-05-10T12:25:36.395Z,100087.21
2023-05-10T12:30:59.643Z,100079.06
2023-05-10T12:33:37.107Z,100074.23
2023-05-10T12:36:08.591Z,100082.20
2023-05-10T12:38:40.178Z,100079.21
2023-05-10T12:41:12.478Z,100085.92
2023-05-10T12:43:43.341Z,100086.19
2023-05-10T12:46:15.412Z,100079.37
2023-05-10T12:48:47.460Z,100078.77
2023-05-10T12:51:20.556Z,100077.34
2023-05-10T12:53:51.078Z,100077.46
2023-05-10T12:56:21.608Z,100079.34
2023-05-10T12:58:52.204Z,100075.53
2023-05-10T13:01:22.703Z,100077.11
2023-05-10T13:03:53.180Z,100080.07
2023-05-10T13:06:23.608Z,100084.09
2023-05-10T13:08:54.025Z,100080.83
2023-05-10T13:11:24.545Z,100079.45
2023-05-10T13:13:55.191Z,100079.63
2023-05-10T13:16:25.683Z,100081.20
2023-05-10T13:18:56.206Z,100075.14
2023-05-10T13:21:26.844Z,100070.64
2023-05-10T13:23:57.734Z,100072.04
2023-05-10T13:26:29.285Z,100069.80
2023-05-10T13:28:59.733Z,100069.62
2023-05-10T13:31:30.381Z,100067.02
2023-05-10T13:34:00.914Z,100065.26
2023-05-10T13:36:31.531Z,100062.30
2023-05-10T13:39:04.516Z,100059.99
2023-05-10T13:41:35.338Z,100062.34
2023-05-10T13:44:05.817Z,100054.59
2023-05-10T13:46:36.507Z,100057.98
2023-05-10T13:49:07.065Z,100052.16
2023-05-10T13:51:38.420Z,100051.09
2023-05-10T13:54:09.698Z,100053.85
2023-05-10T13:56:41.902Z,100052.64
2023-05-10T13:59:12.359Z,100053.66
2023-05-10T14:01:43.802Z,100054.84
2023-05-10T14:04:14.920Z,100048.54
2023-05-10T14:06:45.367Z,100041.84
2023-05-10T14:09:15.895Z,100039.34
2023-05-10T14:11:46.970Z,100038.95
2023-05-10T14:14:17.997Z,100044.08
2023-05-10T14:16:48.721Z,100047.71
2023-05-10T14:19:19.508Z,100040.62
2023-05-10T14:21:49.975Z,100036.98
2023-05-10T14:24:20.484Z,100039.61
2023-05-10T14:26:54.776Z,100040.48
2023-05-10T14:29:25.955Z,100042.02
2023-05-10T14:31:56.832Z,100043.10
2023-05-10T14:34:27.464Z,100040.77
2023-05-10T14:36:58.074Z,100038.00
2023-05-10T14:39:30.596Z,100034.98
2023-05-10T14:42:01.138Z,100032.16
2023-05-10T14:44:31.576Z,100032.84
2023-05-10T14:47:02.069Z,100037.27
2023-05-10T14:49:32.590Z,100030.65
2023-05-10T14:52:03.310Z,100034.96
2023-05-10T14:54:34.496Z,100038.20
2023-05-10T14:57:05.051Z,100040.64
2023-05-10T14:59:35.539Z,100039.42
2023-05-10T15:02:06.559Z,100034.60
2023-05-10T15:04:37.310Z,100030.27
2023-05-10T15:07:08.116Z,100031.40
2023-05-10T15:09:38.522Z,100034.97
2023-05-10T15:12:09.068Z,100033.36
2023-05-10T15:14:39.508Z,100029.22
2023-05-10T15:17:10.233Z,100033.87
2023-05-10T15:19:40.633Z,100041.04
2023-05-10T15:22:11.364Z,100040.15
2023-05-10T15:24:41.890Z,100037.79
2023-05-10T15:27:12.625Z,100036.45
2023-05-10T15:29:43.112Z,100040.52
2023-05-10T15:32:13.559Z,100038.16
2023-05-10T15:34:44.035Z,100041.11
2023-05-10T15:37:14.577Z,100041.54
2023-05-10T15:39:45.888Z,100036.73
2023-05-10T15:42:16.733Z,100037.30
2023-05-10T15:44:51.136Z,100037.75
2023-05-10T15:47:21.694Z,100038.68
2023-05-10T15:49:52.219Z,100035.19
2023-05-10T15:52:23.848Z,100040.23
2023-05-10T15:54:52.960Z,100038.39
2023-05-10T15:57:23.711Z,100036.77
2023-05-10T15:59:54.505Z,100035.39
2023-05-10T16:02:25.111Z,100034.70
2023-05-10T16:04:55.673Z,100035.79
2023-05-10T16:07:26.168Z,100038.69
2023-05-10T16:09:56.682Z,100035.17
2023-05-10T16:12:27.270Z,100037.54
2023-05-10T16:14:58.202Z,100037.48
2023-05-10T16:17:28.876Z,100039.13
2023-05-10T16:19:59.691Z,100042.17
2023-05-10T16:22:30.987Z,100037.75
2023-05-10T16:25:01.794Z,100040.86
2023-05-10T16:27:33.714Z,100042.70
2023-05-10T16:30:04.352Z,100045.45
2023-05-10T16:32:35.183Z,100047.31
2023-05-10T16:35:06.365Z,100048.76
2023-05-10T16:37:36.917Z,100050.02
2023-05-10T16:40:10.465Z,100049.70
2023-05-10T16:42:41.002Z,100046.14
2023-05-10T16:45:14.137Z,100048.81
2023-05-10T16:47:44.688Z,100050.61
2023-05-10T16:50:15.981Z,100052.98
2023-05-10T16:52:46.463Z,100050.77
2023-05-10T16:55:17.088Z,100053.94
2023-05-10T16:57:47.985Z,100057.27
2023-05-10T17:00:20.972Z,100055.80
2023-05-10T17:02:51.496Z,100060.04
2023-05-10T17:05:22.186Z,100058.20
2023-05-10T17:07:53.182Z,100063.80
2023-05-10T17:10:23.696Z,100066.47
2023-05-10T17:12:54.736Z,100067.23
2023-05-10T17:15:25.212Z,100068.16
2023-05-10T17:17:55.715Z,100073.06
2023-05-10T17:20:26.608Z,100078.47
2023-05-10T17:22:57.059Z,100076.28
2023-05-10T17:25:27.752Z,100078.16
2023-05-10T17:27:58.264Z,100080.07
2023-05-10T17:30:32.579Z,100083.09
2023-05-10T17:33:04.227Z,100085.91
2023-05-10T17:35:34.961Z,100088.91
2023-05-10T17:38:05.433Z,100090.18
2023-05-10T17:40:35.884Z,100092.48
2023-05-10T17:43:06.385Z,100097.02
2023-05-10T17:45:37.441Z,100100.02
2023-05-10T17:48:09.451Z,100097.33
2023-05-10T17:50:42.528Z,100095.46
2023-05-10T17:53:13.081Z,100097.94
2023-05-10T17:55:44.047Z,100100.95
2023-05-10T17:58:15.050Z,100100.30
2023-05-10T18:00:46.464Z,100104.48
2023-05-10T18:03:16.942Z,100104.70
2023-05-10T18:05:47.990Z,100107.67
2023-05-10T18:08:22.730Z,100109.99
2023-05-10T18:10:53.439Z,100112.80
2023-05-10T18:13:24.255Z,100115.08
2023-05-10T18:15:55.009Z,100115.13
2023-05-10T18:18:25.570Z,100116.05
2023-05-10T18:20:58.360Z,100119.02
2023-05-10T18:23:29.266Z,100121.30
2023-05-10T18:25:59.821Z,100120.79
2023-05-10T18:28:30.261Z,100126.55
2023-05-10T18:31:01.233Z,100130.02
2023-05-10T18:33:32.201Z,100130.23
2023-05-10T18:36:02.920Z,100131.98
2023-05-10T18:38:33.506Z,100132.00
2023-05-10T18:41:04.068Z,100137.77
2023-05-10T18:43:34.898Z,100142.64
2023-05-10T18:46:05.703Z,100144.39
2023-05-10T18:48:36.178Z,100148.05
2023-05-10T18:51:07.060Z,100152.92
2023-05-10T18:53:38.084Z,100156.08
2023-05-10T18:56:09.044Z,100158.21
2023-05-10T18:58:39.471Z,100158.23
2023-05-10T19:01:10.082Z,100161.02
2023-05-10T19:03:40.690Z,100160.01
2023-05-10T19:06:11.547Z,100162.15
2023-05-10T19:08:42.172Z,100162.34
2023-05-10T19:11:12.688Z,100162.37
2023-05-10T19:13:45.289Z,100167.09
2023-05-10T19:16:16.968Z,100171.29
2023-05-10T19:18:46.839Z,100179.44
2023-05-10T19:21:18.398Z,100176.35
2023-05-10T19:23:48.930Z,100181.21
2023-05-10T19:26:19.400Z,100180.88
2023-05-10T19:28:51.616Z,100184.56
2023-05-10T19:31:22.423Z,100183.90
2023-05-10T19:33:53.546Z,100189.80
2023-05-10T19:36:23.991Z,100187.56
2023-05-10T19:38:55.081Z,100186.39
2023-05-10T19:41:25.828Z,100184.16
2023-05-10T19:43:56.448Z,100186.27
2023-05-10T19:46:27.138Z,100184.92
2023-05-10T19:48:57.826Z,100186.71
2023-05-10T19:51:28.456Z,100187.25
2023-05-10T19:53:58.968Z,100185.02
2023-05-10T19:56:29.815Z,100187.98
2023-05-10T19:59:02.961Z,100186.63
2023-05-10T20:01:33.465Z,100190.13
2023-05-10T20:04:04.116Z,100190.16
2023-05-10T20:06:34.623Z,100195.38
2023-05-10T20:09:05.538Z,100197.13
2023-05-10T20:11:36.106Z,100194.05
2023-05-10T20:14:06.581Z,100199.10
2023-05-10T20:16:37.081Z,100199.63
2023-05-10T20:19:07.593Z,100201.39
2023-05-10T20:21:38.156Z,100202.29
2023-05-10T20:24:10.269Z,100203.16
2023-05-10T20:26:41.628Z,100206.98
2023-05-10T20:29:13.365Z,100209.11
2023-05-10T20:31:42.425Z,100207.90
2023-05-10T20:34:13.304Z,100208.27
2023-05-10T20:36:43.763Z,100206.54
2023-05-10T20:39:14.981Z,100207.92
2023-05-10T20:41:45.442Z,100209.66
2023-05-10T20:44:16.065Z,100209.66
2023-05-10T20:46:46.849Z,100207.23
2023-05-10T20:49:17.709Z,100206.91
2023-05-10T20:51:48.229Z,100208.14
2023-05-10T20:54:18.697Z,100208.15
2023-05-10T20:56:49.140Z,100208.33
2023-05-10T20:59:19.964Z,100208.34
2023-05-10T21:01:50.450Z,100212.33
2023-05-10T21:04:21.377Z,100215.45
2023-05-10T21:06:52.126Z,100212.52
2023-05-10T21:09:22.657Z,100213.05
2023-05-10T21:11:53.711Z,100213.88
2023-05-10T21:14:24.296Z,100212.33
2023-05-10T21:16:54.821Z,100216.83
2023-05-10T21:19:25.563Z,100213.88
2023-05-10T21:21:57.191Z,100217.17
2023-05-10T21:24:27.890Z,100219.26
2023-05-10T21:26:58.348Z,100221.01
2023-05-10T21:29:28.823Z,100222.23
2023-05-10T21:31:59.352Z,100219.48
2023-05-10T21:34:30.189Z,100221.72
2023-05-10T21:37:00.666Z,100224.33
2023-05-10T21:39:31.098Z,100223.98
2023-05-10T21:42:01.691Z,100226.23
2023-05-10T21:44:32.629Z,100227.27
2023-05-10T21:47:03.895Z,100225.39
2023-05-10T21:49:35.096Z,100226.80
2023-05-10T21:52:05.764Z,100227.83
2023-05-10T21:54:37.522Z,100229.04
2023-05-10T21:57:06.503Z,100232.34
2023-05-10T21:59:37.048Z,100232.86
2023-05-10T22:02:07.513Z,100236.33
2023-05-10T22:04:38.094Z,100232.69
2023-05-10T22:07:08.579Z,100233.58
2023-05-10T22:09:39.044Z,100235.84
2023-05-10T22:12:10.203Z,100233.77
2023-05-10T22:14:40.680Z,100235.16
2023-05-10T22:17:11.232Z,100238.10
2023-05-10T22:19:41.768Z,100237.23
2023-05-10T22:22:12.427Z,100233.94
2023-05-10T22:24:42.952Z,100235.17
2023-05-10T22:27:13.680Z,100235.35
2023-05-10T22:29:44.222Z,100237.94
2023-05-10T22:32:14.652Z,100235.88
2023-05-10T22:34:45.178Z,100234.48
2023-05-10T22:37:17.905Z,100234.67
2023-05-10T22:39:49.118Z,100234.33
2023-05-10T22:42:19.584Z,100233.48
2023-05-10T22:44:50.165Z,100232.98
2023-05-10T22:47:20.591Z,100237.64
2023-05-10T22:49:51.146Z,100236.77
2023-05-10T22:52:21.654Z,100235.74
2023-05-10T22:54:52.097Z,100239.20
2023-05-10T22:57:22.617Z,100237.83
2023-05-10T22:59:53.231Z,100245.64
2023-05-10T23:02:23.709Z,100245.30
2023-05-10T23:04:54.291Z,100245.13
2023-05-10T23:07:25.145Z,100248.23
2023-05-10T23:09:55.563Z,100248.05
2023-05-10T23:12:26.050Z,100249.77
2023-05-10T23:14:56.549Z,100249.11
2023-05-10T23:17:27.112Z,100251.52
2023-05-10T23:19:57.872Z,100248.09
2023-05-10T23:22:28.365Z,100252.41
2023-05-10T23:24:59.173Z,100251.38
2023-05-10T23:27:32.367Z,100252.94
2023-05-10T23:30:03.357Z,100254.15
2023-05-10T23:32:34.023Z,100251.58
2023-05-10T23:35:05.066Z,100251.94
2023-05-10T23:37:36.311Z,100254.69
2023-05-10T23:40:08.644Z,100254.69
2023-05-10T23:42:39.089Z,100254.52
2023-05-10T23:45:11.257Z,100253.52
2023-05-10T23:47:41.706Z,100255.59
2023-05-10T23:50:13.361Z,100257.65
2023-05-10T23:52:43.776Z,100257.30
2023-05-10T23:55:14.905Z,100263.17
2023-05-10T23:57:45.388Z,100263.55
